createdAt,value
2023-05-10T00:00:33.092Z,18.52
2023-05-10T00:01:35.081Z,18.52
2023-05-10T00:02:38.155Z,18.52
2023-05-10T00:03:41.174Z,18.50
2023-05-10T00:04:44.081Z,18.49
2023-05-10T00:05:45.969Z,18.48
2023-05-10T00:06:48.843Z,18.48
2023-05-10T00:07:50.656Z,18.47
2023-05-10T00:08:53.513Z,18.48
2023-05-10T00:09:55.313Z,18.48
2023-05-10T00:10:58.127Z,18.49
2023-05-10T00:11:59.951Z,18.48
2023-05-10T00:13:02.830Z,18.48
2023-05-10T00:14:04.910Z,18.48
2023-05-10T00:15:10.979Z,18.49
2023-05-10T00:16:14.108Z,18.47
2023-05-10T00:17:17.129Z,18.48
2023-05-10T00:18:18.905Z,18.47
2023-05-10T00:19:21.829Z,18.45
2023-05-10T00:20:23.870Z,18.45
2023-05-10T00:21:26.706Z,18.45
2023-05-10T00:22:28.622Z,18.44
2023-05-10T00:23:31.436Z,18.46
2023-05-10T00:24:33.331Z,18.45
2023-05-10T00:25:36.170Z,18.44
2023-05-10T00:26:37.984Z,18.43
2023-05-10T00:27:40.958Z,18.43
2023-05-10T00:28:42.917Z,18.41
2023-05-10T00:29:45.781Z,18.42
2023-05-10T00:30:49.252Z,18.39
2023-05-10T00:31:52.131Z,18.39
2023-05-10T00:32:54.076Z,18.39
2023-05-10T00:33:57.111Z,18.39
2023-05-10T00:34:59.482Z,18.39
2023-05-10T00:36:03.524Z,18.37
2023-05-10T00:37:05.728Z,18.36
2023-05-10T00:38:09.600Z,18.36
2023-05-10T00:39:12.166Z,18.37
2023-05-10T00:40:16.022Z,18.43
2023-05-10T00:41:22.753Z,18.44
2023-05-10T00:42:25.640Z,18.46
2023-05-10T00:43:29.348Z,18.45
2023-05-10T00:44:32.498Z,18.44
2023-05-10T00:45:36.571Z,18.44
2023-05-10T00:46:40.916Z,18.45
2023-05-10T00:47:43.250Z,18.44
2023-05-10T00:48:47.149Z,18.45
2023-05-10T00:49:49.154Z,18.45
2023-05-10T00:50:52.074Z,18.44
2023-05-10T00:51:54.133Z,18.42
2023-05-10T00:52:57.417Z,18.43
2023-05-10T00:53:59.604Z,18.43
2023-05-10T00:55:04.274Z,18.43
2023-05-10T00:56:07.305Z,18.38
2023-05-10T00:57:10.837Z,18.43
2023-05-10T00:58:13.367Z,18.44
2023-05-10T00:59:16.620Z,18.42
2023-05-10T01:00:19.640Z,18.43
2023-05-10T01:01:22.710Z,18.42
2023-05-10T01:02:26.381Z,18.42
2023-05-10T01:03:30.112Z,18.41
2023-05-10T01:04:32.307Z,18.41
2023-05-10T01:05:35.384Z,18.40
2023-05-10T01:06:37.352Z,18.41
2023-05-10T01:07:40.163Z,18.36
2023-05-10T01:08:42.222Z,18.38
2023-05-10T01:09:45.179Z,18.38
2023-05-10T01:10:49.973Z,18.38
2023-05-10T01:11:52.937Z,18.39
2023-05-10T01:12:55.071Z,18.39
2023-05-10T01:13:59.756Z,18.38
2023-05-10T01:15:02.682Z,18.38
2023-05-10T01:16:07.480Z,18.38
2023-05-10T01:17:10.792Z,18.32
2023-05-10T01:18:15.392Z,18.29
2023-05-10T01:19:21.331Z,18.28
2023-05-10T01:20:25.383Z,18.26
2023-05-10T01:21:34.220Z,18.26
2023-05-10T01:22:59.761Z,18.26
2023-05-10T01:24:34.012Z,18.26
2023-05-10T01:25:56.422Z,18.26
2023-05-10T01:27:32.780Z,18.23
2023-05-10T01:28:59.538Z,18.24
2023-05-10T01:30:34.488Z,18.27
2023-05-10T01:32:07.829Z,18.22
2023-05-10T01:33:16.147Z,18.21
2023-05-10T01:34:24.738Z,18.20
2023-05-10T01:35:36.702Z,18.19
2023-05-10T01:36:46.597Z,18.19
2023-05-10T01:37:54.653Z,18.18
2023-05-10T01:39:02.955Z,18.18
2023-05-10T01:40:15.423Z,18.18
2023-05-10T01:41:21.033Z,18.17
2023-05-10T01:42:33.022Z,18.17
2023-05-10T01:43:42.634Z,18.15
2023-05-10T01:44:52.243Z,18.15
2023-05-10T01:46:02.233Z,18.16
2023-05-10T01:47:11.834Z,18.14
2023-05-10T01:48:16.058Z,18.13
2023-05-10T01:49:25.127Z,18.14
2023-05-10T01:50:31.564Z,18.13
2023-05-10T01:51:41.490Z,18.13
2023-05-10T01:52:49.111Z,18.12
2023-05-10T01:53:55.777Z,18.12
2023-05-10T01:55:03.037Z,18.11
2023-05-10T01:56:07.541Z,18.11
2023-05-10T01:57:13.137Z,18.10
2023-05-10T01:58:19.153Z,18.09
2023-05-10T01:59:23.139Z,18.08
2023-05-10T02:00:28.131Z,18.09
2023-05-10T02:01:30.868Z,18.08
2023-05-10T02:02:37.343Z,18.11
2023-05-10T02:03:43.939Z,18.09
2023-05-10T02:04:48.313Z,18.16
2023-05-10T02:05:51.931Z,18.13
2023-05-10T02:06:59.313Z,18.14
2023-05-10T02:08:04.050Z,18.12
2023-05-10T02:09:09.021Z,18.09
2023-05-10T02:10:12.601Z,18.05
2023-05-10T02:11:16.523Z,18.06
2023-05-10T02:12:20.077Z,18.12
2023-05-10T02:13:25.399Z,18.12
2023-05-10T02:14:28.627Z,18.13
2023-05-10T02:15:32.120Z,18.13
2023-05-10T02:16:36.274Z,18.13
2023-05-10T02:17:41.137Z,18.13
2023-05-10T02:18:45.937Z,18.13
2023-05-10T02:19:49.743Z,18.06
2023-05-10T02:20:54.683Z,18.11
2023-05-10T02:21:58.718Z,18.11
2023-05-10T02:23:03.987Z,18.12
2023-05-10T02:24:09.571Z,18.05
2023-05-10T02:25:14.277Z,18.03
2023-05-10T02:26:18.931Z,18.03
2023-05-10T02:27:21.612Z,18.02
2023-05-10T02:28:26.305Z,18.01
2023-05-10T02:29:29.354Z,18.00
2023-05-10T02:30:34.328Z,18.01
2023-05-10T02:31:36.663Z,18.01
2023-05-10T02:32:41.899Z,17.99
2023-05-10T02:33:47.033Z,17.97
2023-05-10T02:34:52.761Z,17.97
2023-05-10T02:35:55.780Z,17.95
2023-05-10T02:36:59.593Z,17.96
2023-05-10T02:38:02.316Z,17.96
2023-05-10T02:39:10.563Z,17.96
2023-05-10T02:40:14.069Z,17.97
2023-05-10T02:41:17.201Z,17.96
2023-05-10T02:42:21.272Z,17.97
2023-05-10T02:43:26.103Z,17.96
2023-05-10T02:44:32.017Z,17.95
2023-05-10T02:45:39.868Z,17.94
2023-05-10T02:46:41.950Z,17.94
2023-05-10T02:47:45.476Z,17.94
2023-05-10T02:48:48.856Z,17.93
2023-05-10T02:49:51.774Z,17.93
2023-05-10T02:50:57.179Z,17.93
2023-05-10T02:52:03.525Z,17.92
2023-05-10T02:53:11.051Z,17.92
2023-05-10T02:54:17.585Z,17.91
2023-05-10T02:55:23.442Z,17.90
2023-05-10T02:56:31.020Z,17.89
2023-05-10T02:57:35.098Z,17.89
2023-05-10T02:58:38.094Z,17.88
2023-05-10T02:59:40.936Z,17.89
2023-05-10T03:00:43.802Z,17.87
2023-05-10T03:01:47.373Z,17.87
2023-05-10T03:02:50.290Z,17.87
2023-05-10T03:03:53.557Z,17.86
2023-05-10T03:04:56.683Z,17.86
2023-05-10T03:05:59.485Z,17.87
2023-05-10T03:07:02.905Z,17.86
2023-05-10T03:08:05.877Z,17.85
2023-05-10T03:09:10.358Z,17.86
2023-05-10T03:10:12.741Z,17.86
2023-05-10T03:11:30.909Z,17.86
2023-05-10T03:12:51.861Z,17.85
2023-05-10T03:14:12.358Z,17.85
2023-05-10T03:15:21.197Z,17.81
2023-05-10T03:16:29.315Z,17.81
2023-05-10T03:17:36.942Z,17.80
2023-05-10T03:18:45.826Z,17.80
2023-05-10T03:19:54.849Z,17.79
2023-05-10T03:21:01.688Z,17.81
2023-05-10T03:22:09.780Z,17.81
2023-05-10T03:23:19.337Z,17.81
2023-05-10T03:24:24.317Z,17.79
2023-05-10T03:25:27.517Z,17.80
2023-05-10T03:26:30.317Z,17.79
2023-05-10T03:27:50.116Z,17.79
2023-05-10T03:28:54.322Z,17.79
2023-05-10T03:29:58.461Z,17.78
2023-05-10T03:31:01.293Z,17.79
2023-05-10T03:32:06.327Z,17.78
2023-05-10T03:33:08.933Z,17.77
2023-05-10T03:34:15.760Z,17.77
2023-05-10T03:35:19.104Z,17.78
2023-05-10T03:36:22.115Z,17.77
2023-05-10T03:37:24.133Z,17.78
2023-05-10T03:38:29.656Z,17.79
2023-05-10T03:39:33.334Z,17.78
2023-05-10T03:40:37.184Z,17.78
2023-05-10T03:41:40.068Z,17.78
2023-05-10T03:42:42.098Z,17.78
2023-05-10T03:43:44.948Z,17.77
2023-05-10T03:44:46.858Z,17.77
2023-05-10T03:45:49.678Z,17.77
2023-05-10T03:46:51.600Z,17.76
2023-05-10T03:47:55.002Z,17.76
2023-05-10T03:48:56.952Z,17.75
2023-05-10T03:50:00.483Z,17.74
2023-05-10T03:51:05.081Z,17.72
2023-05-10T03:52:07.532Z,17.72
2023-05-10T03:53:10.758Z,17.71
2023-05-10T03:54:12.917Z,17.69
2023-05-10T03:55:15.782Z,17.69
2023-05-10T03:56:17.710Z,17.69
2023-05-10T03:57:21.891Z,17.69
2023-05-10T03:58:23.807Z,17.70
2023-05-10T03:59:26.637Z,17.69
2023-05-10T04:00:28.473Z,17.75
2023-05-10T04:01:32.104Z,17.76
2023-05-10T04:02:34.077Z,17.72
2023-05-10T04:03:37.871Z,17.69
2023-05-10T04:04:40.941Z,17.77
2023-05-10T04:05:44.028Z,17.77
2023-05-10T04:06:47.258Z,17.71
2023-05-10T04:07:50.837Z,17.69
2023-05-10T04:08:52.741Z,17.70
2023-05-10T04:09:55.600Z,17.69
2023-05-10T04:11:07.138Z,17.70
2023-05-10T04:12:10.949Z,17.69
2023-05-10T04:13:13.061Z,17.76
2023-05-10T04:14:15.946Z,17.71
2023-05-10T04:15:18.053Z,17.68
2023-05-10T04:16:20.964Z,17.67
2023-05-10T04:17:22.886Z,17.66
2023-05-10T04:18:25.705Z,17.66
2023-05-10T04:19:30.315Z,17.67
2023-05-10T04:20:34.669Z,17.66
2023-05-10T04:21:37.387Z,17.67
2023-05-10T04:22:41.731Z,17.65
2023-05-10T04:23:43.940Z,17.63
2023-05-10T04:24:46.784Z,17.62
2023-05-10T04:25:48.656Z,17.61
2023-05-10T04:26:51.602Z,17.60
2023-05-10T04:27:53.739Z,17.60
2023-05-10T04:28:56.579Z,17.59
2023-05-10T04:29:58.493Z,17.58
2023-05-10T04:31:04.981Z,17.57
2023-05-10T04:32:06.900Z,17.57
2023-05-10T04:33:09.769Z,17.56
2023-05-10T04:34:11.644Z,17.56
2023-05-10T04:35:15.810Z,17.55
2023-05-10T04:36:17.705Z,17.55
2023-05-10T04:37:20.929Z,17.55
2023-05-10T04:38:24.275Z,17.47
2023-05-10T04:39:27.200Z,17.47
2023-05-10T04:40:29.055Z,17.41
2023-05-10T04:41:32.203Z,17.39
2023-05-10T04:42:34.194Z,17.39
2023-05-10T04:43:37.698Z,17.39
2023-05-10T04:44:39.593Z,17.39
2023-05-10T04:45:42.566Z,17.36
2023-05-10T04:46:45.349Z,17.37
2023-05-10T04:47:47.251Z,17.34
2023-05-10T04:48:50.401Z,17.35
2023-05-10T04:49:52.210Z,17.31
2023-05-10T04:50:55.548Z,17.33
2023-05-10T04:51:57.490Z,17.32
2023-05-10T04:53:00.316Z,17.31
2023-05-10T04:54:06.590Z,17.33
2023-05-10T04:55:10.925Z,17.33
2023-05-10T04:56:12.889Z,17.29
2023-05-10T04:57:15.783Z,17.29
2023-05-10T04:58:17.705Z,17.30
2023-05-10T04:59:20.974Z,17.23
2023-05-10T05:00:22.897Z,17.23
2023-05-10T05:01:25.809Z,17.18
2023-05-10T05:02:27.800Z,17.18
2023-05-10T05:03:30.738Z,17.13
2023-05-10T05:04:32.708Z,17.11
2023-05-10T05:05:35.695Z,17.05
2023-05-10T05:06:37.596Z,17.07
2023-05-10T05:07:40.489Z,17.09
2023-05-10T05:08:42.384Z,17.10
2023-05-10T05:09:46.494Z,17.11
2023-05-10T05:10:51.113Z,17.08
2023-05-10T05:11:53.960Z,17.08
2023-05-10T05:12:55.900Z,17.11
2023-05-10T05:14:00.065Z,17.12
2023-05-10T05:15:02.349Z,17.10
2023-05-10T05:16:06.099Z,17.08
2023-05-10T05:17:08.476Z,17.06
2023-05-10T05:18:11.339Z,17.05
2023-05-10T05:19:13.289Z,17.04
2023-05-10T05:20:16.631Z,17.04
2023-05-10T05:21:19.530Z,17.05
2023-05-10T05:22:28.230Z,17.06
2023-05-10T05:23:30.200Z,17.10
2023-05-10T05:24:38.469Z,17.07
2023-05-10T05:25:43.044Z,17.08
2023-05-10T05:26:45.018Z,17.03
2023-05-10T05:27:47.863Z,17.01
2023-05-10T05:28:52.712Z,16.94
2023-05-10T05:29:55.806Z,16.97
2023-05-10T05:30:57.753Z,16.99
2023-05-10T05:32:00.619Z,16.99
2023-05-10T05:33:03.343Z,17.04
2023-05-10T05:34:06.377Z,17.01
2023-05-10T05:35:08.877Z,17.03
2023-05-10T05:36:11.763Z,17.04
2023-05-10T05:37:14.616Z,17.06
2023-05-10T05:38:17.517Z,17.06
2023-05-10T05:39:19.401Z,17.08
2023-05-10T05:40:22.441Z,17.08
2023-05-10T05:41:26.996Z,17.08
2023-05-10T05:42:28.880Z,17.09
2023-05-10T05:43:31.726Z,17.08
2023-05-10T05:44:33.661Z,17.09
2023-05-10T05:45:36.687Z,17.11
2023-05-10T05:46:38.970Z,17.12
2023-05-10T05:47:42.045Z,17.13
2023-05-10T05:48:44.011Z,17.14
2023-05-10T05:49:47.341Z,17.14
2023-05-10T05:50:50.226Z,17.17
2023-05-10T05:51:52.144Z,17.14
2023-05-10T05:52:55.370Z,17.14
2023-05-10T05:53:57.227Z,17.13
2023-05-10T05:55:00.139Z,17.13
2023-05-10T05:56:04.643Z,17.14
2023-05-10T05:57:08.490Z,17.16
2023-05-10T05:58:11.382Z,17.17
2023-05-10T05:59:13.415Z,17.17
2023-05-10T06:00:17.176Z,17.18
2023-05-10T06:01:21.295Z,17.18
2023-05-10T06:02:24.316Z,17.18
2023-05-10T06:03:27.234Z,17.17
2023-05-10T06:04:29.448Z,17.18
2023-05-10T06:05:32.633Z,17.15
2023-05-10T06:06:34.596Z,17.15
2023-05-10T06:07:37.501Z,17.15
2023-05-10T06:08:39.443Z,17.18
2023-05-10T06:09:42.317Z,17.19
2023-05-10T06:10:45.469Z,17.18
2023-05-10T06:11:47.669Z,17.19
2023-05-10T06:12:51.956Z,17.20
2023-05-10T06:13:53.902Z,17.19
2023-05-10T06:14:56.745Z,17.19
2023-05-10T06:16:00.185Z,17.17
2023-05-10T06:17:05.079Z,17.18
2023-05-10T06:18:08.266Z,17.20
2023-05-10T06:19:10.296Z,17.19
2023-05-10T06:20:14.495Z,17.18
2023-05-10T06:21:17.392Z,17.19
2023-05-10T06:22:20.305Z,17.20
2023-05-10T06:23:23.227Z,17.19
2023-05-10T06:24:26.157Z,17.21
2023-05-10T06:25:29.221Z,17.22
2023-05-10T06:26:31.130Z,17.24
2023-05-10T06:27:34.013Z,17.25
2023-05-10T06:28:39.434Z,17.26
2023-05-10T06:29:41.704Z,17.26
2023-05-10T06:30:44.598Z,17.26
2023-05-10T06:31:47.643Z,17.25
2023-05-10T06:32:49.580Z,17.26
2023-05-10T06:33:54.145Z,17.24
2023-05-10T06:34:57.196Z,17.24
2023-05-10T06:36:00.053Z,17.25
2023-05-10T06:37:01.952Z,17.27
2023-05-10T06:38:04.842Z,17.26
2023-05-10T06:39:06.753Z,17.29
2023-05-10T06:40:10.999Z,17.28
2023-05-10T06:41:13.798Z,17.29
2023-05-10T06:42:15.828Z,17.30
2023-05-10T06:43:22.658Z,17.30
2023-05-10T06:44:26.817Z,17.28
2023-05-10T06:45:28.682Z,17.30
2023-05-10T06:46:31.601Z,17.28
2023-05-10T06:47:33.879Z,17.28
2023-05-10T06:48:37.639Z,17.30
2023-05-10T06:49:39.570Z,17.31
2023-05-10T06:50:42.358Z,17.33
2023-05-10T06:51:46.025Z,17.30
2023-05-10T06:52:49.280Z,17.31
2023-05-10T06:53:53.837Z,17.29
2023-05-10T06:54:55.686Z,17.28
2023-05-10T06:55:59.044Z,17.32
2023-05-10T06:57:02.525Z,17.37
2023-05-10T06:58:07.157Z,17.44
2023-05-10T06:59:09.131Z,17.49
2023-05-10T07:00:14.198Z,17.52
2023-05-10T07:01:17.322Z,17.57
2023-05-10T07:02:19.478Z,17.59
2023-05-10T07:03:22.531Z,17.60
2023-05-10T07:04:24.527Z,17.59
2023-05-10T07:05:28.851Z,17.58
2023-05-10T07:06:34.073Z,17.57
2023-05-10T07:07:37.064Z,17.57
2023-05-10T07:08:38.897Z,17.54
2023-05-10T07:09:41.836Z,17.53
2023-05-10T07:10:44.708Z,17.50
2023-05-10T07:11:46.587Z,17.51
2023-05-10T07:12:49.635Z,17.47
2023-05-10T07:13:52.904Z,17.46
2023-05-10T07:14:54.773Z,17.45
2023-05-10T07:15:59.380Z,17.44
2023-05-10T07:17:02.395Z,17.40
2023-05-10T07:18:07.587Z,17.40
2023-05-10T07:19:09.997Z,17.42
2023-05-10T07:20:13.987Z,17.38
2023-05-10T07:21:16.000Z,17.38
2023-05-10T07:22:19.047Z,17.37
2023-05-10T07:23:22.186Z,17.36
2023-05-10T07:24:25.231Z,17.35
2023-05-10T07:25:28.334Z,17.31
2023-05-10T07:26:30.612Z,17.30
2023-05-10T07:27:33.537Z,17.32
2023-05-10T07:28:37.729Z,17.29
2023-05-10T07:29:40.886Z,17.29
2023-05-10T07:30:43.346Z,17.29
2023-05-10T07:31:47.536Z,17.30
2023-05-10T07:32:49.497Z,17.23
2023-05-10T07:33:52.529Z,17.21
2023-05-10T07:34:54.440Z,17.23
2023-05-10T07:35:57.383Z,17.20
2023-05-10T07:36:59.869Z,17.22
2023-05-10T07:38:03.001Z,17.19
2023-05-10T07:39:06.294Z,17.20
2023-05-10T07:40:10.561Z,17.21
2023-05-10T07:41:14.068Z,17.21
2023-05-10T07:42:16.855Z,17.18
2023-05-10T07:43:18.741Z,17.22
2023-05-10T07:44:21.540Z,17.22
2023-05-10T07:45:24.405Z,17.23
2023-05-10T07:46:26.589Z,17.24
2023-05-10T07:47:30.936Z,17.25
2023-05-10T07:48:33.907Z,17.26
2023-05-10T07:49:36.622Z,17.27
2023-05-10T07:50:39.512Z,17.27
2023-05-10T07:51:41.408Z,17.28
2023-05-10T07:52:44.362Z,17.28
2023-05-10T07:53:47.255Z,17.28
2023-05-10T07:54:50.113Z,17.30
2023-05-10T07:55:52.760Z,17.31
2023-05-10T07:56:55.704Z,17.33
2023-05-10T07:57:57.812Z,17.33
2023-05-10T07:59:01.535Z,17.33
2023-05-10T08:00:04.440Z,17.34
2023-05-10T08:01:16.250Z,17.35
2023-05-10T08:02:19.273Z,17.34
2023-05-10T08:03:23.792Z,17.34
2023-05-10T08:04:25.918Z,17.33
2023-05-10T08:05:28.814Z,17.32
2023-05-10T08:06:31.773Z,17.32
2023-05-10T08:07:34.622Z,17.32
2023-05-10T08:08:36.513Z,17.32
2023-05-10T08:09:39.460Z,17.29
2023-05-10T08:10:41.417Z,17.29
2023-05-10T08:11:44.277Z,17.26
2023-05-10T08:12:47.161Z,17.27
2023-05-10T08:13:51.486Z,17.28
2023-05-10T08:14:54.969Z,17.29
2023-05-10T08:15:59.087Z,17.30
2023-05-10T08:17:02.073Z,17.32
2023-05-10T08:18:05.271Z,17.30
2023-05-10T08:19:09.812Z,17.30
2023-05-10T08:20:13.856Z,17.31
2023-05-10T08:21:16.490Z,17.31
2023-05-10T08:22:19.447Z,17.31
2023-05-10T08:23:21.726Z,17.33
2023-05-10T08:24:24.933Z,17.34
2023-05-10T08:25:26.984Z,17.33
2023-05-10T08:26:29.807Z,17.32
2023-05-10T08:27:31.674Z,17.31
2023-05-10T08:28:34.669Z,17.31
2023-05-10T08:29:48.829Z,17.29
2023-05-10T08:30:53.192Z,17.28
2023-05-10T08:31:56.213Z,17.31
2023-05-10T08:32:59.277Z,17.29
2023-05-10T08:34:02.349Z,17.33
2023-05-10T08:35:07.661Z,17.38
2023-05-10T08:36:10.721Z,17.39
2023-05-10T08:37:14.334Z,17.43
2023-05-10T08:38:17.556Z,17.46
2023-05-10T08:39:29.713Z,17.45
2023-05-10T08:40:32.677Z,17.51
2023-05-10T08:41:37.616Z,17.51
2023-05-10T08:42:42.084Z,17.56
2023-05-10T08:43:47.246Z,17.60
2023-05-10T08:44:50.905Z,17.63
2023-05-10T08:45:56.456Z,17.65
2023-05-10T08:47:01.462Z,17.66
2023-05-10T08:48:07.234Z,17.64
2023-05-10T08:49:11.211Z,17.58
2023-05-10T08:50:17.110Z,17.62
2023-05-10T08:51:27.713Z,17.60
2023-05-10T08:52:31.264Z,17.60
2023-05-10T08:53:35.873Z,17.60
2023-05-10T08:54:38.150Z,17.58
2023-05-10T08:55:43.225Z,17.54
2023-05-10T08:56:48.577Z,17.52
2023-05-10T08:57:52.631Z,17.50
2023-05-10T08:58:56.039Z,17.46
2023-05-10T08:59:58.114Z,17.47
2023-05-10T09:01:01.919Z,17.47
2023-05-10T09:02:05.981Z,17.44
2023-05-10T09:03:08.938Z,17.42
2023-05-10T09:04:11.271Z,17.39
2023-05-10T09:05:17.163Z,17.37
2023-05-10T09:06:20.783Z,17.31
2023-05-10T09:07:23.043Z,17.34
2023-05-10T09:08:27.447Z,17.34
2023-05-10T09:09:29.988Z,17.33
2023-05-10T09:10:33.652Z,17.35
2023-05-10T09:11:36.050Z,17.34
2023-05-10T09:12:39.615Z,17.34
2023-05-10T09:13:42.773Z,17.32
2023-05-10T09:14:47.832Z,17.35
2023-05-10T09:15:50.934Z,17.37
2023-05-10T09:16:55.186Z,17.37
2023-05-10T09:18:00.470Z,17.38
2023-05-10T09:19:02.565Z,17.39
2023-05-10T09:20:06.718Z,17.42
2023-05-10T09:21:12.013Z,17.42
2023-05-10T09:22:14.295Z,17.43
2023-05-10T09:23:17.081Z,17.39
2023-05-10T09:24:21.194Z,17.38
2023-05-10T09:25:24.158Z,17.40
2023-05-10T09:26:26.096Z,17.44
2023-05-10T09:27:29.154Z,17.46
2023-05-10T09:28:34.320Z,17.45
2023-05-10T09:29:44.946Z,17.47
2023-05-10T09:30:56.514Z,17.44
2023-05-10T09:31:59.554Z,17.43
2023-05-10T09:33:02.934Z,17.40
2023-05-10T09:34:04.900Z,17.45
2023-05-10T09:35:12.001Z,17.44
2023-05-10T09:36:17.227Z,17.44
2023-05-10T09:37:20.120Z,17.47
2023-05-10T09:38:23.704Z,17.45
2023-05-10T09:39:33.120Z,17.47
2023-05-10T09:40:35.973Z,17.44
2023-05-10T09:41:37.867Z,17.37
2023-05-10T09:42:40.955Z,17.44
2023-05-10T09:43:42.787Z,17.43
2023-05-10T09:44:48.937Z,17.43
2023-05-10T09:45:50.860Z,17.40
2023-05-10T09:46:53.803Z,17.40
2023-05-10T09:47:57.178Z,17.43
2023-05-10T09:49:00.187Z,17.44
2023-05-10T09:50:05.494Z,17.42
2023-05-10T09:51:08.024Z,17.43
2023-05-10T09:52:13.626Z,17.44
2023-05-10T09:53:17.837Z,17.47
2023-05-10T09:56:01.443Z,17.50
2023-05-10T09:57:04.538Z,17.54
2023-05-10T09:58:11.508Z,17.54
2023-05-10T09:59:13.963Z,17.58
2023-05-10T10:00:21.514Z,17.63
2023-05-10T10:01:27.211Z,17.66
2023-05-10T10:02:31.252Z,17.67
2023-05-10T10:03:34.136Z,17.74
2023-05-10T10:04:40.424Z,17.78
2023-05-10T10:05:44.490Z,17.85
2023-05-10T10:06:46.443Z,17.87
2023-05-10T10:07:51.423Z,17.91
2023-05-10T10:08:57.097Z,17.94
2023-05-10T10:09:59.890Z,17.97
2023-05-10T10:11:03.223Z,17.99
2023-05-10T10:12:05.758Z,18.00
2023-05-10T10:13:08.986Z,18.01
2023-05-10T10:14:13.608Z,18.01
2023-05-10T10:15:17.144Z,18.00
2023-05-10T10:16:20.180Z,17.98
2023-05-10T10:17:22.748Z,17.96
2023-05-10T10:18:28.143Z,17.92
2023-05-10T10:19:34.834Z,17.86
2023-05-10T10:20:38.472Z,17.82
2023-05-10T10:21:41.455Z,17.81
2023-05-10T10:22:44.815Z,17.79
2023-05-10T10:23:49.790Z,17.76
2023-05-10T10:24:52.893Z,17.73
2023-05-10T10:25:57.146Z,17.71
2023-05-10T10:27:08.985Z,17.70
2023-05-10T10:28:25.008Z,17.66
2023-05-10T10:29:37.570Z,17.67
2023-05-10T10:30:43.738Z,17.65
2023-05-10T10:31:51.187Z,17.64
2023-05-10T10:33:27.327Z,17.63
2023-05-10T10:34:33.165Z,17.63
2023-05-10T10:35:36.274Z,17.63
2023-05-10T10:36:43.058Z,17.64
2023-05-10T10:37:46.570Z,17.66
2023-05-10T10:39:05.048Z,17.67
2023-05-10T10:40:26.713Z,17.69
2023-05-10T10:41:32.022Z,17.67
2023-05-10T10:42:50.773Z,17.67
2023-05-10T10:44:40.198Z,17.64
2023-05-10T10:45:42.371Z,17.63
2023-05-10T10:47:09.567Z,17.62
2023-05-10T10:48:23.417Z,17.64
2023-05-10T10:49:25.968Z,17.63
2023-05-10T10:50:29.042Z,17.56
2023-05-10T10:51:32.214Z,17.58
2023-05-10T10:52:39.096Z,17.58
2023-05-10T10:53:41.880Z,17.58
2023-05-10T10:54:52.730Z,17.59
2023-05-10T10:56:07.086Z,17.58
2023-05-10T10:57:13.646Z,17.55
2023-05-10T10:58:32.530Z,17.48
2023-05-10T10:59:34.405Z,17.45
2023-05-10T11:00:38.905Z,17.43
2023-05-10T11:01:45.079Z,17.26
2023-05-10T11:02:49.714Z,17.34
2023-05-10T11:04:20.812Z,17.34
2023-05-10T11:05:37.851Z,17.30
2023-05-10T11:06:41.231Z,17.31
2023-05-10T11:07:52.946Z,17.30
2023-05-10T11:08:55.946Z,17.26
2023-05-10T11:10:05.876Z,17.20
2023-05-10T11:11:09.914Z,17.21
2023-05-10T11:12:12.426Z,17.14
2023-05-10T11:13:15.414Z,17.11
2023-05-10T11:14:22.273Z,17.10
2023-05-10T11:15:32.050Z,17.07
2023-05-10T11:16:43.781Z,17.02
2023-05-10T11:17:48.354Z,17.03
2023-05-10T11:18:55.888Z,17.01
2023-05-10T11:20:10.081Z,17.03
2023-05-10T11:21:12.953Z,16.99
2023-05-10T11:22:14.996Z,16.99
2023-05-10T11:23:18.922Z,17.00
2023-05-10T11:24:23.208Z,17.01
2023-05-10T11:25:29.075Z,17.02
2023-05-10T11:26:34.437Z,17.04
2023-05-10T11:27:39.428Z,17.03
2023-05-10T11:28:42.615Z,17.04
2023-05-10T11:29:46.328Z,17.05
2023-05-10T11:30:48.474Z,17.07
2023-05-10T11:31:51.865Z,17.06
2023-05-10T11:32:54.167Z,17.07
2023-05-10T11:34:02.617Z,17.09
2023-05-10T11:35:08.325Z,17.11
2023-05-10T11:36:13.443Z,17.10
2023-05-10T11:37:16.325Z,17.12
2023-05-10T11:38:19.325Z,17.13
2023-05-10T11:39:21.840Z,17.15
2023-05-10T11:40:25.720Z,17.14
2023-05-10T11:41:31.626Z,17.16
2023-05-10T11:42:34.548Z,17.16
2023-05-10T11:43:39.282Z,17.17
2023-05-10T11:44:42.961Z,17.17
2023-05-10T11:45:46.302Z,17.16
2023-05-10T11:46:49.204Z,17.16
2023-05-10T11:47:51.273Z,17.16
2023-05-10T11:48:56.186Z,17.17
2023-05-10T11:49:58.293Z,17.16
2023-05-10T11:51:03.031Z,17.17
2023-05-10T11:52:07.137Z,17.17
2023-05-10T11:53:09.040Z,17.14
2023-05-10T11:54:13.742Z,17.12
2023-05-10T11:55:15.923Z,17.12
2023-05-10T11:56:21.609Z,17.11
2023-05-10T11:57:28.562Z,17.10
2023-05-10T11:58:32.347Z,17.10
2023-05-10T11:59:34.235Z,17.10
2023-05-10T12:00:37.248Z,17.09
2023-05-10T12:01:40.280Z,17.09
2023-05-10T12:02:42.577Z,17.10
2023-05-10T12:03:46.313Z,17.09
2023-05-10T12:04:48.803Z,17.09
2023-05-10T12:05:51.841Z,17.10
2023-05-10T12:06:53.784Z,17.10
2023-05-10T12:08:14.763Z,17.10
2023-05-10T12:09:20.978Z,17.11
2023-05-10T12:10:31.117Z,17.10
2023-05-10T12:11:33.024Z,17.11
2023-05-10T12:12:44.373Z,17.11
2023-05-10T12:13:47.512Z,17.09
2023-05-10T12:14:52.470Z,17.10
2023-05-10T12:15:54.511Z,17.10
2023-05-10T12:16:59.361Z,17.10
2023-05-10T12:18:02.190Z,17.10
2023-05-10T12:19:06.455Z,17.12
2023-05-10T12:20:16.460Z,17.12
2023-05-10T12:21:21.485Z,17.13
2023-05-10T12:22:23.457Z,17.13
2023-05-10T12:23:26.346Z,17.14
2023-05-10T12:24:28.284Z,17.14
2023-05-10T12:25:33.617Z,17.13
2023-05-10T12:26:37.772Z,17.13
2023-05-10T12:27:40.713Z,17.14
2023-05-10T12:28:45.392Z,17.15
2023-05-10T12:29:49.661Z,17.14
2023-05-10T12:30:55.477Z,17.15
2023-05-10T12:31:58.789Z,17.14
2023-05-10T12:33:04.444Z,17.14
2023-05-10T12:34:10.112Z,17.15
2023-05-10T12:35:13.146Z,17.16
2023-05-10T12:36:17.763Z,17.15
2023-05-10T12:37:25.286Z,17.14
2023-05-10T12:38:30.589Z,17.14
2023-05-10T12:39:43.517Z,17.14
2023-05-10T12:40:45.544Z,17.14
2023-05-10T12:41:48.465Z,17.13
2023-05-10T12:42:51.486Z,17.13
2023-05-10T12:43:54.975Z,17.14
2023-05-10T12:44:58.532Z,17.13
2023-05-10T12:46:06.974Z,17.12
2023-05-10T12:47:09.959Z,17.12
2023-05-10T12:48:12.921Z,17.12
2023-05-10T12:49:15.845Z,17.12
2023-05-10T12:50:19.311Z,17.13
2023-05-10T12:51:23.548Z,17.12
2023-05-10T12:52:25.728Z,17.13
2023-05-10T12:53:28.914Z,17.13
2023-05-10T12:54:30.945Z,17.12
2023-05-10T12:55:33.961Z,17.12
2023-05-10T12:56:36.006Z,17.12
2023-05-10T12:57:38.905Z,17.13
2023-05-10T12:58:41.552Z,17.12
2023-05-10T12:59:46.023Z,17.12
2023-05-10T13:00:48.097Z,17.11
2023-05-10T13:01:51.167Z,17.11
2023-05-10T13:02:55.176Z,17.10
2023-05-10T13:03:57.158Z,17.10
2023-05-10T13:05:00.237Z,17.11
2023-05-10T13:06:02.252Z,17.10
2023-05-10T13:07:05.447Z,17.08
2023-05-10T13:08:08.359Z,17.08
2023-05-10T13:09:10.293Z,17.08
2023-05-10T13:10:13.461Z,17.08
2023-05-10T13:11:17.622Z,17.06
2023-05-10T13:12:19.756Z,17.06
2023-05-10T13:13:22.691Z,17.06
2023-05-10T13:14:25.438Z,17.05
2023-05-10T13:15:29.732Z,17.06
2023-05-10T13:16:32.969Z,17.06
2023-05-10T13:17:36.013Z,17.06
2023-05-10T13:18:39.045Z,17.07
2023-05-10T13:19:41.972Z,17.07
2023-05-10T13:20:45.258Z,17.06
2023-05-10T13:21:47.319Z,17.06
2023-05-10T13:22:50.625Z,17.04
2023-05-10T13:23:54.551Z,17.04
2023-05-10T13:24:57.447Z,17.04
2023-05-10T13:25:59.292Z,17.03
2023-05-10T13:27:02.208Z,17.02
2023-05-10T13:28:04.184Z,17.02
2023-05-10T13:29:07.169Z,17.02
2023-05-10T13:30:12.284Z,17.03
2023-05-10T13:31:16.808Z,17.02
2023-05-10T13:32:19.946Z,17.02
2023-05-10T13:33:22.992Z,17.01
2023-05-10T13:34:25.888Z,17.03
2023-05-10T13:35:28.864Z,17.03
2023-05-10T13:36:30.797Z,17.03
2023-05-10T13:37:36.445Z,17.02
2023-05-10T13:38:38.607Z,17.02
2023-05-10T13:39:41.638Z,17.04
2023-05-10T13:40:43.578Z,17.04
2023-05-10T13:41:46.457Z,17.04
2023-05-10T13:42:48.325Z,17.04
2023-05-10T13:43:51.217Z,17.03
2023-05-10T13:44:53.132Z,17.04
2023-05-10T13:45:56.111Z,17.04
2023-05-10T13:47:00.399Z,17.04
2023-05-10T13:48:02.680Z,17.04
2023-05-10T13:49:05.682Z,17.02
2023-05-10T13:50:09.885Z,17.03
2023-05-10T13:51:11.719Z,17.02
2023-05-10T13:52:15.021Z,17.01